Time,TemperatureF,DewpointF,PressureIn,WindDirection,WindDirectionDegrees,WindSpeedMPH,WindSpeedGustMPH,Humidity,HourlyPrecipIn,Conditions,Clouds,dailyrainin,SolarRadiationWatts/m^2,SoftwareType,DateUTC
2013-02-18 00:00:00,42.3,36.2,30.02,SSE,158,0.0,0.1,79,0.00,RA,,0.00,0.0,WeatherDisplay:10.37,2013-02-17 22:00:00,
2013-02-18 00:05:00,42.1,36.0,30.02,SW,225,2.3,2.3,79,0.00,RA,,0.00,0.0,WeatherDisplay:10.37,2013-02-17 22:05:00,
2013-02-18 00:10:00,42.1,36.0,30.02,East,90,0.0,0.0,79,0.00,RA,,0.00,0.0,WeatherDisplay:10.37,2013-02-17 22:10:00,
2013-02-18 00:15:00,42.1,36.4,30.02,ESE,112,0.0,0.0,80,0.00,RA,,0.00,0.0,WeatherDisplay:10.37,2013-02-17 22:15:00,
2013-02-18 00:20:00,41.9,36.2,30.02,ENE,68,0.0,0.0,80,0.00,RA,,0.00,0.0,WeatherDisplay:10.37,2013-02-17 22:20:00,
2013-02-18 00:25:00,41.7,36.0,30.02,ENE,68,1.1,0.0,80,0.00,RA,,0.00,0.0,WeatherDisplay:10.37,2013-02-17 22:25:00,
2013-02-18 00:30:00,41.5,35.8,30.02,NW,315,2.3,2.3,80,0.00,FEW,,0.00,0.0,WeatherDisplay:10.37,2013-02-17 22:30:00,
2013-02-18 00:35:00,41.5,35.8,30.02,WNW,292,0.0,0.0,80,0.00,FEW,,0.00,0.0,WeatherDisplay:10.37,2013-02-17 22:35:00,
2013-02-18 00:40:00,41.5,35.8,30.02,West,270,0.9,0.0,80,0.00,FEW,,0.00,0.0,WeatherDisplay:10.37,2013-02-17 22:40:00,
2013-02-18 00:45:00,41.5,35.8,30.02,ESE,112,2.2,2.2,80,0.00,FEW,,0.00,0.0,WeatherDisplay:10.37,2013-02-17 22:45:00,
2013-02-18 00:50:00,41.5,36.1,30.02,West,270,0.0,0.0,81,0.00,FEW,,0.00,0.0,WeatherDisplay:10.37,2013-02-17 22:50:00,
2013-02-18 00:55:00,41.4,36.0,30.02,ENE,68,1.1,1.1,81,0.00,FEW,,0.00,0.0,WeatherDisplay:10.37,2013-02-17 22:55:00,
2013-02-18 01:00:00,41.4,36.0,30.02,ESE,112,0.0,0.0,81,0.00,FEW,,0.00,0.0,WeatherDisplay:10.37,2013-02-17 23:00:00,
2013-02-18 01:05:00,41.2,35.8,30.02,NE,45,0.0,0.0,81,0.00,FEW,,0.00,0.0,WeatherDisplay:10.37,2013-02-17 23:05:00,
2013-02-18 01:10:00,41.2,35.8,30.02,NE,45,0.0,0.0,81,0.00,FEW,,0.00,0.0,WeatherDisplay:10.37,2013-02-17 23:10:00,
2013-02-18 01:15:00,41.2,35.8,30.02,NE,45,0.0,0.0,81,0.00,FEW,,0.00,0.0,WeatherDisplay:10.37,2013-02-17 23:15:00,
2013-02-18 01:20:00,41.2,35.8,30.01,NE,45,0.0,0.0,81,0.00,FEW,,0.00,0.0,WeatherDisplay:10.37,2013-02-17 23:20:00,
2013-02-18 01:25:00,41.2,36.1,30.02,NE,45,0.0,0.0,82,0.00,FEW,,0.00,0.0,WeatherDisplay:10.37,2013-02-17 23:25:00,
2013-02-18 01:30:00,41.2,36.1,30.01,ESE,112,0.0,0.0,82,0.00,FEW,,0.00,0.0,WeatherDisplay:10.37,2013-02-17 23:30:00,
2013-02-18 01:35:00,41.2,36.1,30.01,ENE,68,0.0,0.0,82,0.00,FEW,,0.00,0.0,WeatherDisplay:10.37,2013-02-17 23:35:00,
2013-02-18 01:40:00,41.0,35.9,30.01,ESE,112,0.0,0.0,82,0.00,FEW,,0.00,0.0,WeatherDisplay:10.37,2013-02-17 23:40:00,
2013-02-18 01:45:00,40.8,35.7,30.01,ESE,112,0.0,0.0,82,0.00,FEW,,0.00,0.0,WeatherDisplay:10.37,2013-02-17 23:45:00,
2013-02-18 01:50:00,40.8,35.7,30.01,NNW,338,2.3,2.3,82,0.00,FEW,,0.00,0.0,WeatherDisplay:10.37,2013-02-17 23:50:00,
2013-02-18 01:55:00,40.6,35.6,30.01,WNW,292,0.0,0.0,82,0.00,FEW,,0.00,0.0,WeatherDisplay:10.37,2013-02-17 23:55:00,
2013-02-18 02:00:00,40.6,35.6,30.01,WSW,248,0.0,0.0,82,0.00,FEW,,0.00,0.0,WeatherDisplay:10.37,2013-02-18 00:00:00,
2013-02-18 02:05:00,40.6,35.9,30.01,SSE,158,0.0,0.0,83,0.00,FEW,,0.00,0.0,WeatherDisplay:10.37,2013-02-18 00:05:00,
2013-02-18 02:10:00,40.6,35.9,30.00,SSE,158,0.0,0.0,83,0.00,FEW,,0.00,0.0,WeatherDisplay:10.37,2013-02-18 00:10:00,
2013-02-18 02:15:00,40.6,35.9,30.01,West,270,0.0,0.0,83,0.00,FEW,,0.00,0.0,WeatherDisplay:10.37,2013-02-18 00:15:00,
2013-02-18 02:20:00,40.5,35.7,30.01,ENE,68,2.3,2.3,83,0.00,FEW,,0.00,0.0,WeatherDisplay:10.37,2013-02-18 00:20:00,
2013-02-18 02:25:00,40.5,35.7,30.01,NNW,338,0.0,0.0,83,0.00,FEW,,0.00,0.0,WeatherDisplay:10.37,2013-02-18 00:25:00,
2013-02-18 02:30:00,40.6,35.9,30.01,NE,45,0.0,0.0,83,0.00,FEW,,0.00,0.0,WeatherDisplay:10.37,2013-02-18 00:30:00,
2013-02-18 02:35:00,40.5,35.7,30.01,NE,45,0.0,0.0,83,0.00,FEW,,0.00,0.0,WeatherDisplay:10.37,2013-02-18 00:35:00,
2013-02-18 02:40:00,40.5,35.7,30.01,NNE,22,0.0,0.0,83,0.00,FEW,,0.00,0.0,WeatherDisplay:10.37,2013-02-18 00:40:00,
2013-02-18 02:45:00,40.5,35.7,30.01,North,0,0.0,0.0,83,0.00,FEW,,0.00,0.0,WeatherDisplay:10.37,2013-02-18 00:45:00,
2013-02-18 02:50:00,40.6,35.9,30.01,NW,315,0.0,0.0,83,0.00,FEW,,0.00,0.0,WeatherDisplay:10.37,2013-02-18 00:50:00,
2013-02-18 02:55:00,40.8,36.1,30.00,NW,315,1.8,1.8,83,0.00,FEW,,0.00,0.0,WeatherDisplay:10.37,2013-02-18 00:55:00,
2013-02-18 03:00:00,40.8,36.1,30.01,NNW,338,0.0,0.1,83,0.00,FEW,,0.00,0.0,WeatherDisplay:10.37,2013-02-18 01:00:00,
2013-02-18 03:05:00,41.0,36.2,30.00,NNE,22,0.0,0.0,83,0.00,FEW,,0.00,0.0,WeatherDisplay:10.37,2013-02-18 01:05:00,
2013-02-18 03:10:00,41.2,36.4,30.00,West,270,2.3,2.3,83,0.00,FEW,,0.00,0.0,WeatherDisplay:10.37,2013-02-18 01:10:00,
2013-02-18 03:15:00,41.2,36.1,30.00,NNW,338,0.0,0.0,82,0.00,FEW,,0.00,0.0,WeatherDisplay:10.37,2013-02-18 01:15:00,
2013-02-18 03:20:00,41.4,36.3,30.00,NNW,338,0.0,0.0,82,0.00,SCT,,0.00,0.0,WeatherDisplay:10.37,2013-02-18 01:20:00,
2013-02-18 03:25:00,41.4,36.3,30.00,NNW,338,1.1,0.0,82,0.00,SCT,,0.00,0.0,WeatherDisplay:10.37,2013-02-18 01:25:00,
2013-02-18 03:30:00,41.4,36.3,30.00,NW,315,0.0,0.0,82,0.00,SCT,,0.00,0.0,WeatherDisplay:10.37,2013-02-18 01:30:00,
2013-02-18 03:35:00,41.4,36.3,30.00,WNW,292,2.3,2.3,82,0.00,SCT,,0.00,0.0,WeatherDisplay:10.37,2013-02-18 01:35:00,
2013-02-18 03:40:00,41.5,36.1,30.00,NW,315,0.0,0.0,81,0.00,SCT,,0.00,0.0,WeatherDisplay:10.37,2013-02-18 01:40:00,
2013-02-18 03:45:00,41.5,36.1,30.00,West,270,0.0,0.0,81,0.00,SCT,,0.00,0.0,WeatherDisplay:10.37,2013-02-18 01:45:00,
2013-02-18 03:50:00,41.5,36.1,30.00,NNW,338,0.0,0.0,81,0.00,SCT,,0.00,0.0,WeatherDisplay:10.37,2013-02-18 01:50:00,
2013-02-18 03:55:00,41.7,36.3,30.00,NNW,338,2.3,2.3,81,0.00,SCT,,0.00,0.0,WeatherDisplay:10.37,2013-02-18 01:55:00,
2013-02-18 04:00:00,41.9,36.5,30.00,North,0,1.1,1.1,81,0.00,SCT,,0.00,0.0,WeatherDisplay:10.37,2013-02-18 02:00:00,
2013-02-18 04:05:00,41.9,36.2,30.00,NE,45,2.3,2.3,80,0.00,SCT,,0.00,0.0,WeatherDisplay:10.37,2013-02-18 02:05:00,
2013-02-18 04:10:00,42.1,36.0,30.00,NW,315,0.9,0.9,79,0.00,SCT,,0.00,0.0,WeatherDisplay:10.37,2013-02-18 02:10:00,
2013-02-18 04:15:00,41.9,35.9,30.00,NW,315,0.0,0.0,79,0.00,SCT,,0.00,0.0,WeatherDisplay:10.37,2013-02-18 02:15:00,
2013-02-18 04:20:00,41.9,35.9,30.00,NW,315,0.0,0.0,79,0.00,SCT,,0.00,0.0,WeatherDisplay:10.37,2013-02-18 02:20:00,
2013-02-18 04:25:00,42.1,36.0,30.00,NW,315,1.1,0.0,79,0.00,SCT,,0.00,0.0,WeatherDisplay:10.37,2013-02-18 02:25:00,
2013-02-18 04:30:00,42.1,36.0,30.00,WSW,248,2.3,0.0,79,0.00,SCT,,0.00,0.0,WeatherDisplay:10.37,2013-02-18 02:30:00,
2013-02-18 04:35:00,42.1,36.0,30.00,NNW,338,0.0,0.1,79,0.00,SCT,,0.00,0.0,WeatherDisplay:10.37,2013-02-18 02:35:00,
2013-02-18 04:40:00,42.1,35.7,30.00,NNW,338,0.0,0.0,78,0.00,SCT,,0.00,0.0,WeatherDisplay:10.37,2013-02-18 02:40:00,
2013-02-18 04:45:00,42.1,35.7,30.00,NW,315,0.0,0.0,78,0.00,SCT,,0.00,0.0,WeatherDisplay:10.37,2013-02-18 02:45:00,
2013-02-18 04:50:00,42.1,35.7,30.00,NNW,338,0.0,0.0,78,0.00,SCT,,0.00,0.0,WeatherDisplay:10.37,2013-02-18 02:50:00,
2013-02-18 04:55:00,42.1,35.7,30.00,NNW,338,0.0,0.0,78,0.00,SCT,,0.00,0.0,WeatherDisplay:10.37,2013-02-18 02:55:00,
2013-02-18 05:00:00,42.1,35.7,30.00,NNW,338,0.0,0.0,78,0.00,SCT,,0.00,0.0,WeatherDisplay:10.37,2013-02-18 03:00:00,
2013-02-18 05:05:00,41.9,35.5,30.00,NE,45,0.0,0.0,78,0.00,SCT,,0.00,0.0,WeatherDisplay:10.37,2013-02-18 03:05:00,
2013-02-18 05:10:00,41.7,35.4,30.00,East,90,0.0,0.0,78,0.00,SCT,,0.00,0.0,WeatherDisplay:10.37,2013-02-18 03:10:00,
2013-02-18 05:15:00,41.7,35.4,30.01,East,90,0.0,0.0,78,0.00,SCT,,0.00,0.0,WeatherDisplay:10.37,2013-02-18 03:15:00,
2013-02-18 05:20:00,41.5,35.5,30.00,East,90,0.0,0.0,79,0.00,FEW,,0.00,0.0,WeatherDisplay:10.37,2013-02-18 03:20:00,
2013-02-18 05:25:00,41.4,35.3,30.00,NE,45,0.0,0.0,79,0.00,FEW,,0.00,0.0,WeatherDisplay:10.37,2013-02-18 03:25:00,
2013-02-18 05:30:00,41.2,35.2,30.00,ENE,68,0.0,0.2,79,0.00,FEW,,0.00,0.0,WeatherDisplay:10.37,2013-02-18 03:30:00,
2013-02-18 05:35:00,41.2,35.2,30.00,ENE,68,2.3,2.3,79,0.00,FEW,,0.00,0.0,WeatherDisplay:10.37,2013-02-18 03:35:00,
2013-02-18 05:40:00,41.2,35.2,30.00,ENE,68,2.3,2.3,79,0.00,FEW,,0.00,0.0,WeatherDisplay:10.37,2013-02-18 03:40:00,
2013-02-18 05:45:00,41.2,35.2,30.00,ENE,68,1.1,0.0,79,0.00,FEW,,0.00,0.0,WeatherDisplay:10.37,2013-02-18 03:45:00,
2013-02-18 05:50:00,41.0,35.0,30.00,NNE,22,3.5,3.5,79,0.00,FEW,,0.00,0.0,WeatherDisplay:10.37,2013-02-18 03:50:00,
2013-02-18 05:55:00,41.0,35.0,30.00,ENE,68,1.1,0.0,79,0.00,FEW,,0.00,0.0,WeatherDisplay:10.37,2013-02-18 03:55:00,
2013-02-18 06:00:00,41.2,35.2,30.00,NNW,338,1.1,1.1,79,0.00,FEW,,0.00,0.0,WeatherDisplay:10.37,2013-02-18 04:00:00,
2013-02-18 06:05:00,41.5,35.5,30.00,NE,45,0.0,0.0,79,0.00,FEW,,0.00,0.0,WeatherDisplay:10.37,2013-02-18 04:05:00,
2013-02-18 06:10:00,41.5,35.5,30.00,ENE,68,1.1,0.0,79,0.00,FEW,,0.00,0.0,WeatherDisplay:10.37,2013-02-18 04:10:00,
2013-02-18 06:15:00,41.5,35.5,30.00,ESE,112,0.0,0.0,79,0.00,FEW,,0.00,0.0,WeatherDisplay:10.37,2013-02-18 04:15:00,
2013-02-18 06:20:00,41.5,35.5,30.00,ENE,68,0.0,0.0,79,0.00,FEW,,0.00,0.0,WeatherDisplay:10.37,2013-02-18 04:20:00,
2013-02-18 06:26:00,41.4,35.3,30.00,ENE,68,0.0,0.0,79,0.00,FEW,,0.00,0.0,WeatherDisplay:10.37,2013-02-18 04:26:00,
2013-02-18 06:31:00,41.0,35.0,30.00,ENE,68,0.0,0.0,79,0.00,FEW,,0.00,0.0,WeatherDisplay:10.37,2013-02-18 04:31:00,
2013-02-18 06:36:00,40.8,34.8,30.00,ENE,68,0.0,0.0,79,0.00,FEW,,0.00,0.0,WeatherDisplay:10.37,2013-02-18 04:36:00,
2013-02-18 06:41:00,40.8,35.1,30.01,East,90,0.0,0.0,80,0.01,RA,,0.01,0.0,WeatherDisplay:10.37,2013-02-18 04:41:00,
2013-02-18 06:46:00,40.6,35.0,30.01,East,90,0.0,0.0,80,0.01,RA,,0.01,0.0,WeatherDisplay:10.37,2013-02-18 04:46:00,
2013-02-18 06:51:00,40.5,34.8,30.01,ENE,68,0.0,0.0,80,0.01,RA,,0.01,0.0,WeatherDisplay:10.37,2013-02-18 04:51:00,
2013-02-18 06:56:00,40.5,34.8,30.01,ENE,68,0.0,0.0,80,0.01,RA,,0.01,0.0,WeatherDisplay:10.37,2013-02-18 04:56:00,
2013-02-18 07:00:00,40.6,35.0,30.01,ENE,68,0.0,0.0,80,0.01,RA,,0.01,0.0,WeatherDisplay:10.37,2013-02-18 05:00:00,
2013-02-18 07:05:00,40.8,35.1,30.01,East,90,0.0,0.0,80,0.01,RA,,0.01,0.0,WeatherDisplay:10.37,2013-02-18 05:05:00,
2013-02-18 07:10:00,40.8,35.1,30.01,East,90,0.0,0.0,80,0.01,FEW,,0.01,0.0,WeatherDisplay:10.37,2013-02-18 05:10:00,
2013-02-18 07:15:00,40.8,35.4,30.02,East,90,0.0,0.0,81,0.01,FEW,,0.01,0.0,WeatherDisplay:10.37,2013-02-18 05:15:00,
2013-02-18 07:20:00,40.6,35.3,30.02,ENE,68,0.0,0.0,81,0.01,FEW,,0.01,0.0,WeatherDisplay:10.37,2013-02-18 05:20:00,
2013-02-18 07:25:00,40.6,35.3,30.03,ENE,68,2.3,2.3,81,0.01,FEW,,0.01,0.0,WeatherDisplay:10.37,2013-02-18 05:25:00,
2013-02-18 07:30:00,40.6,35.3,30.03,ENE,68,2.3,2.3,81,0.01,FEW,,0.01,0.0,WeatherDisplay:10.37,2013-02-18 05:30:00,
2013-02-18 07:35:00,40.6,35.3,30.02,ENE,68,1.6,1.6,81,0.01,FEW,,0.01,0.0,WeatherDisplay:10.37,2013-02-18 05:35:00,
2013-02-18 07:40:00,40.6,35.3,30.03,East,90,0.0,0.0,81,0.00,FEW,,0.01,0.0,WeatherDisplay:10.37,2013-02-18 05:40:00,
2013-02-18 07:45:00,40.8,35.4,30.03,NE,45,2.3,2.3,81,0.00,FEW,,0.01,0.0,WeatherDisplay:10.37,2013-02-18 05:45:00,
2013-02-18 07:50:00,40.8,35.4,30.03,NE,45,1.1,1.1,81,0.00,FEW,,0.01,0.0,WeatherDisplay:10.37,2013-02-18 05:50:00,
2013-02-18 07:55:00,41.0,35.6,30.03,ENE,68,0.0,0.0,81,0.00,FEW,,0.01,0.0,WeatherDisplay:10.37,2013-02-18 05:55:00,
2013-02-18 08:00:00,41.4,36.0,30.03,ENE,68,1.1,1.1,81,0.00,FEW,,0.01,0.0,WeatherDisplay:10.37,2013-02-18 06:00:00,
2013-02-18 08:05:00,41.7,36.3,30.03,East,90,4.6,4.6,81,0.00,FEW,,0.01,0.0,WeatherDisplay:10.37,2013-02-18 06:05:00,
2013-02-18 08:10:00,42.1,19.5,30.03,ENE,68,3.5,3.5,40,0.00,FEW,,0.01,0.0,WeatherDisplay:10.37,2013-02-18 06:10:00,
2013-02-18 08:15:00,42.6,36.9,30.03,ENE,68,4.6,4.6,80,0.00,FEW,,0.01,0.0,WeatherDisplay:10.37,2013-02-18 06:15:00,
2013-02-18 08:20:00,43.3,37.6,30.03,NNE,22,3.5,3.5,80,0.00,FEW,,0.01,0.0,WeatherDisplay:10.37,2013-02-18 06:20:00,
2013-02-18 08:25:00,43.9,37.8,30.03,NE,45,0.0,0.0,79,0.00,FEW,,0.01,0.0,WeatherDisplay:10.37,2013-02-18 06:25:00,
2013-02-18 08:30:00,44.6,38.2,30.03,SE,135,1.1,1.1,78,0.00,FEW,,0.01,0.0,WeatherDisplay:10.37,2013-02-18 06:30:00,
2013-02-18 08:35:00,45.1,38.4,30.03,SE,135,0.0,0.0,77,0.00,FEW,,0.01,0.0,WeatherDisplay:10.37,2013-02-18 06:35:00,
2013-02-18 08:40:00,45.3,38.5,30.03,East,90,0.0,0.0,77,0.00,FEW,,0.01,0.0,WeatherDisplay:10.37,2013-02-18 06:40:00,
2013-02-18 08:45:00,45.7,38.9,30.04,ENE,68,0.0,0.0,77,0.00,FEW,,0.01,0.0,WeatherDisplay:10.37,2013-02-18 06:45:00,
2013-02-18 08:50:00,46.2,39.1,30.03,East,90,0.0,0.0,76,0.00,FEW,,0.01,0.0,WeatherDisplay:10.37,2013-02-18 06:50:00,
2013-02-18 08:55:00,46.6,39.4,30.04,ENE,68,0.0,0.0,76,0.00,FEW,,0.01,0.0,WeatherDisplay:10.37,2013-02-18 06:55:00,
2013-02-18 09:00:00,46.9,39.8,30.04,ENE,68,0.0,0.0,76,0.00,FEW,,0.01,0.0,WeatherDisplay:10.37,2013-02-18 07:00:00,
2013-02-18 09:05:00,47.5,39.9,30.03,ENE,68,3.5,3.5,75,0.00,FEW,,0.01,0.0,WeatherDisplay:10.37,2013-02-18 07:05:00,
2013-02-18 09:10:00,47.7,39.8,30.03,ENE,68,0.0,0.0,74,0.00,FEW,,0.01,0.0,WeatherDisplay:10.37,2013-02-18 07:10:00,
2013-02-18 09:15:00,48.0,40.1,30.03,ENE,68,0.0,0.0,74,0.00,FEW,,0.01,0.0,WeatherDisplay:10.37,2013-02-18 07:15:00,
2013-02-18 09:20:00,48.4,40.1,30.03,ENE,68,1.1,1.1,73,0.00,FEW,,0.01,0.0,WeatherDisplay:10.37,2013-02-18 07:20:00,
2013-02-18 09:25:00,48.7,40.5,30.04,ENE,68,2.3,2.3,73,0.00,FEW,,0.01,0.0,WeatherDisplay:10.37,2013-02-18 07:25:00,
2013-02-18 09:30:00,48.9,40.3,30.04,ENE,68,4.6,4.6,72,0.00,FEW,,0.01,0.0,WeatherDisplay:10.37,2013-02-18 07:30:00,
2013-02-18 09:35:00,48.9,39.9,30.04,NE,45,4.6,4.6,71,0.00,FEW,,0.01,0.0,WeatherDisplay:10.37,2013-02-18 07:35:00,
2013-02-18 09:40:00,48.9,39.6,30.03,East,90,2.7,2.7,70,0.00,FEW,,0.01,0.0,WeatherDisplay:10.37,2013-02-18 07:40:00,
2013-02-18 09:45:00,48.9,38.8,30.04,East,90,10.4,10.4,68,0.00,FEW,,0.01,0.0,WeatherDisplay:10.37,2013-02-18 07:45:00,
2013-02-18 09:50:00,49.1,38.6,30.03,East,90,9.2,9.2,67,0.00,FEW,,0.01,0.0,WeatherDisplay:10.37,2013-02-18 07:50:00,
2013-02-18 09:55:00,48.9,38.1,30.04,East,90,5.8,5.8,66,0.00,FEW,,0.01,0.0,WeatherDisplay:10.37,2013-02-18 07:55:00,
2013-02-18 10:00:00,49.3,38.4,30.04,NE,45,6.9,6.9,66,0.00,FEW,,0.01,0.0,WeatherDisplay:10.37,2013-02-18 08:00:00,
2013-02-18 10:05:00,49.3,38.0,30.04,ENE,68,8.3,8.3,65,0.00,FEW,,0.01,0.0,WeatherDisplay:10.37,2013-02-18 08:05:00,
2013-02-18 10:10:00,49.6,38.3,30.04,ESE,112,4.6,4.6,65,0.00,FEW,,0.01,0.0,WeatherDisplay:10.37,2013-02-18 08:10:00,
2013-02-18 10:15:00,49.8,38.1,30.05,ENE,68,8.1,8.1,64,0.00,FEW,,0.01,0.0,WeatherDisplay:10.37,2013-02-18 08:15:00,
2013-02-18 10:20:00,49.8,37.7,30.04,East,90,8.1,8.1,63,0.00,FEW,,0.01,0.0,WeatherDisplay:10.37,2013-02-18 08:20:00,
2013-02-18 10:25:00,50.4,38.2,30.03,ESE,112,8.1,8.1,63,0.00,FEW,,0.01,0.0,WeatherDisplay:10.37,2013-02-18 08:25:00,
2013-02-18 10:30:00,50.5,37.6,30.04,NE,45,11.5,11.5,61,0.00,FEW,,0.01,0.0,WeatherDisplay:10.37,2013-02-18 08:30:00,
2013-02-18 10:35:00,50.5,37.6,30.04,NE,45,6.9,6.9,61,0.00,SCT,,0.01,0.0,WeatherDisplay:10.37,2013-02-18 08:35:00,
2013-02-18 10:40:00,50.7,38.2,30.04,ENE,68,4.6,4.6,62,0.00,SCT,,0.01,0.0,WeatherDisplay:10.37,2013-02-18 08:40:00,
2013-02-18 10:45:00,50.9,38.3,30.04,NE,45,5.4,5.4,62,0.00,SCT,,0.01,0.0,WeatherDisplay:10.37,2013-02-18 08:45:00,
2013-02-18 10:50:00,51.6,38.6,30.04,NE,45,5.1,5.1,61,0.00,SCT,,0.01,0.0,WeatherDisplay:10.37,2013-02-18 08:50:00,
2013-02-18 10:55:00,51.8,38.3,30.04,NE,45,6.9,6.9,60,0.00,SCT,,0.01,0.0,WeatherDisplay:10.37,2013-02-18 08:55:00,
2013-02-18 11:00:00,52.0,38.5,30.04,ENE,68,3.5,3.5,60,0.00,SCT,,0.01,0.0,WeatherDisplay:10.37,2013-02-18 09:00:00,
2013-02-18 11:05:00,52.2,38.3,30.04,ENE,68,4.0,4.0,59,0.00,SCT,,0.01,0.0,WeatherDisplay:10.37,2013-02-18 09:05:00,
2013-02-18 11:10:00,52.3,38.0,30.04,ENE,68,3.5,3.5,58,0.00,SCT,,0.01,0.0,WeatherDisplay:10.37,2013-02-18 09:10:00,
2013-02-18 11:15:00,52.5,38.2,30.04,ENE,68,6.9,6.9,58,0.00,SCT,,0.01,0.0,WeatherDisplay:10.37,2013-02-18 09:15:00,
2013-02-18 11:20:00,52.5,37.7,30.03,East,90,8.1,8.1,57,0.00,SCT,,0.01,0.0,WeatherDisplay:10.37,2013-02-18 09:20:00,
2013-02-18 11:25:00,52.3,37.5,30.04,SE,135,3.5,3.5,57,0.00,SCT,,0.01,0.0,WeatherDisplay:10.37,2013-02-18 09:25:00,
2013-02-18 11:30:00,52.5,37.7,30.04,NE,45,4.6,4.6,57,0.00,SCT,,0.01,0.0,WeatherDisplay:10.37,2013-02-18 09:30:00,
2013-02-18 11:35:00,52.7,37.4,30.05,NE,45,9.2,9.2,56,0.00,SCT,,0.01,0.0,WeatherDisplay:10.37,2013-02-18 09:35:00,
2013-02-18 11:40:00,52.7,37.4,30.05,East,90,3.5,3.5,56,0.00,SCT,,0.01,0.0,WeatherDisplay:10.37,2013-02-18 09:40:00,
2013-02-18 11:45:00,53.4,37.6,30.05,ENE,68,6.9,6.9,55,0.00,SCT,,0.01,0.0,WeatherDisplay:10.37,2013-02-18 09:45:00,
2013-02-18 11:50:00,53.1,36.8,30.04,SE,135,3.5,3.5,54,0.00,SCT,,0.01,0.0,WeatherDisplay:10.37,2013-02-18 09:50:00,
2013-02-18 11:55:00,53.4,37.2,30.04,East,90,5.8,5.8,54,0.00,SCT,,0.01,0.0,WeatherDisplay:10.37,2013-02-18 09:55:00,
2013-02-18 12:00:00,53.8,37.0,30.04,NE,45,8.1,8.1,53,0.00,SCT,,0.01,0.0,WeatherDisplay:10.37,2013-02-18 10:00:00,
2013-02-18 12:05:00,53.4,36.7,30.04,NNE,22,4.6,4.6,53,0.00,SCT,,0.01,0.0,WeatherDisplay:10.37,2013-02-18 10:05:00,
2013-02-18 12:10:00,53.8,37.0,30.04,ENE,68,4.6,4.6,53,0.00,SCT,,0.01,0.0,WeatherDisplay:10.37,2013-02-18 10:10:00,
2013-02-18 12:15:00,54.1,37.4,30.04,East,90,6.9,6.9,53,0.00,SCT,,0.01,0.0,WeatherDisplay:10.37,2013-02-18 10:15:00,
2013-02-18 12:20:00,54.7,37.9,30.04,ENE,68,4.0,4.0,53,0.00,SCT,,0.01,0.0,WeatherDisplay:10.37,2013-02-18 10:20:00,
2013-02-18 12:25:00,54.7,37.4,30.03,NE,45,3.5,3.5,52,0.00,SCT,,0.01,0.0,WeatherDisplay:10.37,2013-02-18 10:25:00,
2013-02-18 12:30:00,54.9,37.1,30.03,NNE,22,8.1,8.1,51,0.00,SCT,,0.01,0.0,WeatherDisplay:10.37,2013-02-18 10:30:00,
2013-02-18 12:35:00,54.5,37.2,30.03,NE,45,6.9,6.9,52,0.00,SCT,,0.01,0.0,WeatherDisplay:10.37,2013-02-18 10:35:00,
2013-02-18 12:40:00,54.0,36.7,30.03,NE,45,5.8,5.8,52,0.00,SCT,,0.01,0.0,WeatherDisplay:10.37,2013-02-18 10:40:00,
2013-02-18 12:45:00,54.0,36.7,30.03,NE,45,8.1,8.1,52,0.00,SCT,,0.01,0.0,WeatherDisplay:10.37,2013-02-18 10:45:00,
2013-02-18 12:50:00,54.1,37.4,30.03,East,90,5.8,5.8,53,0.00,SCT,,0.01,0.0,WeatherDisplay:10.37,2013-02-18 10:50:00,
2013-02-18 12:55:00,54.7,37.9,30.03,ENE,68,2.3,2.6,53,0.00,SCT,,0.01,0.0,WeatherDisplay:10.37,2013-02-18 10:55:00,
2013-02-18 13:00:00,54.1,36.4,30.03,WNW,292,4.6,4.6,51,0.00,SCT,,0.01,0.0,WeatherDisplay:10.37,2013-02-18 11:00:00,
2013-02-18 13:05:00,54.0,36.7,30.03,ENE,68,2.3,2.3,52,0.00,SCT,,0.01,0.0,WeatherDisplay:10.37,2013-02-18 11:05:00,
2013-02-18 13:10:00,54.1,36.9,30.03,ESE,112,3.8,3.8,52,0.00,SCT,,0.01,0.0,WeatherDisplay:10.37,2013-02-18 11:10:00,
2013-02-18 13:16:00,54.3,37.1,30.03,ENE,68,4.6,4.6,52,0.00,SCT,,0.01,0.0,WeatherDisplay:10.37,2013-02-18 11:16:00,
2013-02-18 13:21:00,54.1,36.9,30.02,NNW,338,3.1,3.1,52,0.00,SCT,,0.01,0.0,WeatherDisplay:10.37,2013-02-18 11:21:00,
2013-02-18 13:26:00,54.1,36.9,30.02,NE,45,8.1,8.1,52,0.00,SCT,,0.01,0.0,WeatherDisplay:10.37,2013-02-18 11:26:00,
2013-02-18 13:31:00,54.0,36.2,30.03,NE,45,6.9,6.9,51,0.00,SCT,,0.01,0.0,WeatherDisplay:10.37,2013-02-18 11:31:00,
2013-02-18 13:36:00,54.1,36.9,30.02,ESE,112,4.6,4.6,52,0.00,SCT,,0.01,0.0,WeatherDisplay:10.37,2013-02-18 11:36:00,
2013-02-18 13:41:00,54.9,37.6,30.02,East,90,1.1,1.4,52,0.00,SCT,,0.01,0.0,WeatherDisplay:10.37,2013-02-18 11:41:00,
2013-02-18 13:46:00,55.4,37.6,30.02,NNE,22,0.0,0.0,51,0.00,SCT,,0.01,0.0,WeatherDisplay:10.37,2013-02-18 11:46:00,
2013-02-18 13:51:00,55.9,37.6,30.02,ENE,68,3.5,3.5,50,0.00,SCT,,0.01,0.0,WeatherDisplay:10.37,2013-02-18 11:51:00,
2013-02-18 13:56:00,56.3,37.9,30.02,NW,315,2.3,2.3,50,0.00,SCT,,0.01,0.0,WeatherDisplay:10.37,2013-02-18 11:56:00,
2013-02-18 14:01:00,56.5,37.5,30.02,NW,315,3.5,3.5,49,0.00,SCT,,0.01,0.0,WeatherDisplay:10.37,2013-02-18 12:01:00,
2013-02-18 14:06:00,55.8,36.9,30.01,NW,315,2.5,2.5,49,0.00,SCT,,0.01,0.0,WeatherDisplay:10.37,2013-02-18 12:06:00,
2013-02-18 14:11:00,55.2,36.4,30.02,NE,45,1.1,1.1,49,0.00,SCT,,0.01,0.0,WeatherDisplay:10.37,2013-02-18 12:11:00,
2013-02-18 14:16:00,55.0,36.7,30.02,North,0,3.5,3.5,50,0.00,BKN,,0.01,0.0,WeatherDisplay:10.37,2013-02-18 12:16:00,
2013-02-18 14:21:00,54.9,36.6,30.01,East,90,3.5,3.5,50,0.00,BKN,,0.01,0.0,WeatherDisplay:10.37,2013-02-18 12:21:00,
2013-02-18 14:26:00,54.5,36.2,30.01,ENE,68,1.1,1.1,50,0.00,BKN,,0.01,0.0,WeatherDisplay:10.37,2013-02-18 12:26:00,
2013-02-18 14:31:00,54.5,36.2,30.02,NNE,22,1.1,1.1,50,0.00,BKN,,0.01,0.0,WeatherDisplay:10.37,2013-02-18 12:31:00,
2013-02-18 14:36:00,54.3,36.6,30.01,North,0,1.1,1.1,51,0.00,BKN,,0.01,0.0,WeatherDisplay:10.37,2013-02-18 12:36:00,
2013-02-18 14:41:00,54.3,36.6,30.01,ESE,112,0.0,0.0,51,0.00,BKN,,0.01,0.0,WeatherDisplay:10.37,2013-02-18 12:41:00,
2013-02-18 14:46:00,54.3,36.6,30.02,SSE,158,0.0,0.0,51,0.00,BKN,,0.01,0.0,WeatherDisplay:10.37,2013-02-18 12:46:00,
2013-02-18 14:51:00,54.1,36.9,30.02,South,180,3.5,3.5,52,0.00,BKN,,0.01,0.0,WeatherDisplay:10.37,2013-02-18 12:51:00,
2013-02-18 14:56:00,53.8,37.0,30.02,SW,225,3.5,3.5,53,0.00,BKN,,0.01,0.0,WeatherDisplay:10.37,2013-02-18 12:56:00,
2013-02-18 15:01:00,53.4,37.2,30.01,South,180,0.0,0.0,54,0.00,BKN,,0.01,0.0,WeatherDisplay:10.37,2013-02-18 13:01:00,
2013-02-18 15:07:00,53.2,37.0,30.02,SSW,202,1.1,2.1,54,0.00,BKN,,0.01,0.0,WeatherDisplay:10.37,2013-02-18 13:07:00,
2013-02-18 15:12:00,52.9,36.7,30.02,ESE,112,2.3,0.0,54,0.00,BKN,,0.01,0.0,WeatherDisplay:10.37,2013-02-18 13:12:00,
2013-02-18 15:17:00,52.7,37.0,30.01,ESE,112,0.0,0.6,55,0.00,BKN,,0.01,0.0,WeatherDisplay:10.37,2013-02-18 13:17:00,
2013-02-18 15:22:00,52.3,37.1,30.02,SSE,158,0.0,0.0,56,0.00,BKN,,0.01,0.0,WeatherDisplay:10.37,2013-02-18 13:22:00,
2013-02-18 15:27:00,52.3,37.1,30.01,SE,135,0.0,0.0,56,0.00,BKN,,0.01,0.0,WeatherDisplay:10.37,2013-02-18 13:27:00,
2013-02-18 15:32:00,52.2,37.4,30.02,SSE,158,1.1,1.1,57,0.00,BKN,,0.01,0.0,WeatherDisplay:10.37,2013-02-18 13:32:00,
2013-02-18 15:37:00,52.0,37.2,30.02,SSE,158,3.5,3.5,57,0.00,BKN,,0.01,0.0,WeatherDisplay:10.37,2013-02-18 13:37:00,
2013-02-18 15:42:00,52.0,37.2,30.02,SE,135,3.5,3.5,57,0.00,BKN,,0.01,0.0,WeatherDisplay:10.37,2013-02-18 13:42:00,
2013-02-18 15:47:00,52.0,37.7,30.01,ENE,68,2.0,2.0,58,0.00,BKN,,0.01,0.0,WeatherDisplay:10.37,2013-02-18 13:47:00,
2013-02-18 15:52:00,51.6,37.3,30.02,ENE,68,1.1,1.1,58,0.00,BKN,,0.01,0.0,WeatherDisplay:10.37,2013-02-18 13:52:00,
2013-02-18 15:57:00,51.6,37.3,30.01,SSE,158,5.8,5.8,58,0.00,BKN,,0.01,0.0,WeatherDisplay:10.37,2013-02-18 13:57:00,
2013-02-18 16:02:00,51.6,37.7,30.01,NE,45,0.0,0.0,59,0.00,BKN,,0.01,0.0,WeatherDisplay:10.37,2013-02-18 14:02:00,
2013-02-18 16:07:00,51.4,37.6,30.01,SE,135,3.5,3.5,59,0.00,BKN,,0.01,0.0,WeatherDisplay:10.37,2013-02-18 14:07:00,
2013-02-18 16:12:00,51.3,37.4,30.01,SE,135,2.3,2.3,59,0.00,BKN,,0.01,0.0,WeatherDisplay:10.37,2013-02-18 14:12:00,
2013-02-18 16:17:00,51.4,38.0,30.02,ESE,112,2.3,2.3,60,0.00,BKN,,0.01,0.0,WeatherDisplay:10.37,2013-02-18 14:17:00,
2013-02-18 16:23:00,51.4,21.0,30.01,ESE,112,3.5,3.5,30,0.00,BKN,,0.01,0.0,WeatherDisplay:10.37,2013-02-18 14:23:00,
2013-02-18 16:28:00,51.4,38.0,30.02,SSE,158,3.5,3.5,60,0.00,BKN,,0.01,0.0,WeatherDisplay:10.37,2013-02-18 14:28:00,
2013-02-18 16:33:00,51.4,38.0,30.02,SE,135,1.1,1.1,60,0.00,BKN,,0.01,0.0,WeatherDisplay:10.37,2013-02-18 14:33:00,
2013-02-18 16:38:00,51.1,37.7,30.01,ESE,112,4.6,4.6,60,0.00,BKN,,0.01,0.0,WeatherDisplay:10.37,2013-02-18 14:38:00,
2013-02-18 16:43:00,50.9,37.5,30.01,SE,135,4.6,4.6,60,0.00,BKN,,0.01,0.0,WeatherDisplay:10.37,2013-02-18 14:43:00,
2013-02-18 16:48:00,50.9,37.9,30.02,East,90,2.3,2.3,61,0.00,BKN,,0.01,0.0,WeatherDisplay:10.37,2013-02-18 14:48:00,
2013-02-18 16:53:00,50.9,37.9,30.01,East,90,2.3,2.3,61,0.00,BKN,,0.01,0.0,WeatherDisplay:10.37,2013-02-18 14:53:00,
2013-02-18 16:58:00,50.7,37.8,30.01,SE,135,3.5,3.5,61,0.00,BKN,,0.01,0.0,WeatherDisplay:10.37,2013-02-18 14:58:00,
2013-02-18 17:03:00,50.7,37.8,30.02,SE,135,3.5,3.5,61,0.00,SCT,,0.01,0.0,WeatherDisplay:10.37,2013-02-18 15:03:00,
2013-02-18 17:08:00,50.7,38.2,30.02,SSE,158,3.5,3.5,62,0.00,SCT,,0.01,0.0,WeatherDisplay:10.37,2013-02-18 15:08:00,
2013-02-18 17:13:00,50.5,38.0,30.02,SSE,158,3.5,3.5,62,0.00,SCT,,0.01,0.0,WeatherDisplay:10.37,2013-02-18 15:13:00,
2013-02-18 17:18:00,50.5,38.0,30.02,SSE,158,2.7,0.0,62,0.00,SCT,,0.01,0.0,WeatherDisplay:10.37,2013-02-18 15:18:00,
2013-02-18 17:23:00,50.5,38.4,30.03,NE,45,1.1,1.1,63,0.00,SCT,,0.01,0.0,WeatherDisplay:10.37,2013-02-18 15:23:00,
2013-02-18 17:28:00,50.2,38.1,30.02,SE,135,2.3,2.3,63,0.00,SCT,,0.01,0.0,WeatherDisplay:10.37,2013-02-18 15:28:00,
2013-02-18 17:33:00,50.2,38.1,30.02,East,90,0.0,0.0,63,0.00,SCT,,0.01,0.0,WeatherDisplay:10.37,2013-02-18 15:33:00,
2013-02-18 17:38:00,50.2,38.5,30.02,East,90,3.5,3.5,64,0.00,SCT,,0.01,0.0,WeatherDisplay:10.37,2013-02-18 15:38:00,
2013-02-18 17:43:00,49.8,38.1,30.02,East,90,3.5,3.5,64,0.00,SCT,,0.01,0.0,WeatherDisplay:10.37,2013-02-18 15:43:00,
2013-02-18 17:48:00,49.8,38.5,30.02,NE,45,3.5,3.5,65,0.00,SCT,,0.01,0.0,WeatherDisplay:10.37,2013-02-18 15:48:00,
2013-02-18 17:53:00,49.6,38.3,30.02,ENE,68,2.2,2.2,65,0.00,SCT,,0.01,0.0,WeatherDisplay:10.37,2013-02-18 15:53:00,
2013-02-18 17:58:00,49.6,38.3,30.02,East,90,3.5,3.5,65,0.00,SCT,,0.01,0.0,WeatherDisplay:10.37,2013-02-18 15:58:00,
2013-02-18 18:03:00,49.3,38.4,30.02,ENE,68,1.6,1.6,66,0.00,SCT,,0.01,0.0,WeatherDisplay:10.37,2013-02-18 16:03:00,
2013-02-18 18:08:00,49.3,38.4,30.02,East,90,2.3,2.3,66,0.00,SCT,,0.01,0.0,WeatherDisplay:10.37,2013-02-18 16:08:00,
2013-02-18 18:13:00,49.1,38.2,30.02,ENE,68,2.3,2.3,66,0.00,SCT,,0.01,0.0,WeatherDisplay:10.37,2013-02-18 16:13:00,
2013-02-18 18:18:00,48.9,38.4,30.02,ENE,68,3.5,3.5,67,0.00,SCT,,0.01,0.0,WeatherDisplay:10.37,2013-02-18 16:18:00,
2013-02-18 18:23:00,48.9,38.4,30.02,NE,45,2.3,2.3,67,0.00,SCT,,0.01,0.0,WeatherDisplay:10.37,2013-02-18 16:23:00,
2013-02-18 18:28:00,48.9,38.8,30.02,ENE,68,3.4,3.4,68,0.00,SCT,,0.01,0.0,WeatherDisplay:10.37,2013-02-18 16:28:00,
2013-02-18 18:33:00,48.7,38.3,30.02,ENE,68,2.3,2.3,67,0.00,SCT,,0.01,0.0,WeatherDisplay:10.37,2013-02-18 16:33:00,
2013-02-18 18:38:00,48.7,38.6,30.02,East,90,2.3,2.3,68,0.00,SCT,,0.01,0.0,WeatherDisplay:10.37,2013-02-18 16:38:00,
2013-02-18 18:43:00,48.6,38.5,30.02,ENE,68,3.5,3.5,68,0.00,SCT,,0.01,0.0,WeatherDisplay:10.37,2013-02-18 16:43:00,
2013-02-18 18:48:00,48.6,38.5,30.02,ENE,68,1.6,1.6,68,0.00,SCT,,0.01,0.0,WeatherDisplay:10.37,2013-02-18 16:48:00,
2013-02-18 18:53:00,48.4,38.7,30.02,NE,45,2.3,2.3,69,0.00,SCT,,0.01,0.0,WeatherDisplay:10.37,2013-02-18 16:53:00,
2013-02-18 18:58:00,48.4,38.7,30.03,ESE,112,2.3,2.3,69,0.00,SCT,,0.01,0.0,WeatherDisplay:10.37,2013-02-18 16:58:00,
2013-02-18 19:03:00,48.4,38.7,30.03,ENE,68,2.3,2.3,69,0.00,SCT,,0.01,0.0,WeatherDisplay:10.37,2013-02-18 17:03:00,
2013-02-18 19:08:00,48.2,38.5,30.03,SE,135,1.1,1.1,69,0.00,SCT,,0.01,0.0,WeatherDisplay:10.37,2013-02-18 17:08:00,
2013-02-18 19:13:00,48.0,38.7,30.03,NNE,22,2.5,2.5,70,0.00,SCT,,0.01,0.0,WeatherDisplay:10.37,2013-02-18 17:13:00,
2013-02-18 19:18:00,48.0,38.7,30.03,ENE,68,1.1,1.2,70,0.00,SCT,,0.01,0.0,WeatherDisplay:10.37,2013-02-18 17:18:00,
2013-02-18 19:23:00,47.8,38.5,30.03,NW,315,2.7,2.7,70,0.00,SCT,,0.01,0.0,WeatherDisplay:10.37,2013-02-18 17:23:00,
2013-02-18 19:28:00,47.8,38.5,30.03,NNE,22,3.5,3.5,70,0.00,SCT,,0.01,0.0,WeatherDisplay:10.37,2013-02-18 17:28:00,
2013-02-18 19:33:00,47.8,38.9,30.03,ENE,68,4.6,4.6,71,0.00,SCT,,0.01,0.0,WeatherDisplay:10.37,2013-02-18 17:33:00,
2013-02-18 19:38:00,47.8,38.9,30.03,North,0,3.5,3.5,71,0.00,SCT,,0.01,0.0,WeatherDisplay:10.37,2013-02-18 17:38:00,
2013-02-18 19:43:00,47.8,38.9,30.03,East,90,3.5,3.5,71,0.00,SCT,,0.01,0.0,WeatherDisplay:10.37,2013-02-18 17:43:00,
2013-02-18 19:48:00,47.8,38.9,30.03,NE,45,3.5,3.5,71,0.00,SCT,,0.01,0.0,WeatherDisplay:10.37,2013-02-18 17:48:00,
2013-02-18 19:53:00,47.7,38.7,30.03,ENE,68,3.5,3.5,71,0.00,SCT,,0.01,0.0,WeatherDisplay:10.37,2013-02-18 17:53:00,
2013-02-18 19:58:00,47.5,38.5,30.02,ENE,68,0.0,0.0,71,0.00,SCT,,0.01,0.0,WeatherDisplay:10.37,2013-02-18 17:58:00,
2013-02-18 20:03:00,47.5,38.5,30.03,NNW,338,2.3,2.3,71,0.00,BKN,,0.01,0.0,WeatherDisplay:10.37,2013-02-18 18:03:00,
2013-02-18 20:08:00,47.5,38.5,30.02,ENE,68,2.3,2.3,71,0.00,BKN,,0.01,0.0,WeatherDisplay:10.37,2013-02-18 18:08:00,
2013-02-18 20:13:00,47.5,38.5,30.03,NNW,338,3.5,3.5,71,0.00,BKN,,0.01,0.0,WeatherDisplay:10.37,2013-02-18 18:13:00,
2013-02-18 20:18:00,47.5,38.5,30.02,East,90,2.3,2.3,71,0.00,BKN,,0.01,0.0,WeatherDisplay:10.37,2013-02-18 18:18:00,
2013-02-18 20:23:00,47.5,38.5,30.02,ENE,68,2.3,2.3,71,0.00,BKN,,0.01,0.0,WeatherDisplay:10.37,2013-02-18 18:23:00,
2013-02-18 20:28:00,47.5,38.5,30.02,East,90,1.1,1.1,71,0.00,BKN,,0.01,0.0,WeatherDisplay:10.37,2013-02-18 18:28:00,
2013-02-18 20:33:00,47.5,38.5,30.03,ENE,68,2.3,2.3,71,0.00,BKN,,0.01,0.0,WeatherDisplay:10.37,2013-02-18 18:33:00,
2013-02-18 20:38:00,47.5,38.5,30.02,ENE,68,3.5,3.5,71,0.00,BKN,,0.01,0.0,WeatherDisplay:10.37,2013-02-18 18:38:00,
2013-02-18 20:43:00,47.5,38.5,30.02,East,90,2.5,2.5,71,0.00,BKN,,0.01,0.0,WeatherDisplay:10.37,2013-02-18 18:43:00,
2013-02-18 20:48:00,47.5,38.5,30.02,NW,315,3.5,3.5,71,0.00,BKN,,0.01,0.0,WeatherDisplay:10.37,2013-02-18 18:48:00,
2013-02-18 20:53:00,47.3,38.4,30.02,NE,45,0.0,0.0,71,0.00,BKN,,0.01,0.0,WeatherDisplay:10.37,2013-02-18 18:53:00,
2013-02-18 20:58:00,47.3,38.7,30.02,ENE,68,2.3,2.3,72,0.00,BKN,,0.01,0.0,WeatherDisplay:10.37,2013-02-18 18:58:00,
2013-02-18 21:03:00,47.3,38.7,30.02,NE,45,3.5,0.0,72,0.00,BKN,,0.01,0.0,WeatherDisplay:10.37,2013-02-18 19:03:00,
2013-02-18 21:08:00,47.3,38.7,30.02,ENE,68,6.0,6.0,72,0.00,BKN,,0.01,0.0,WeatherDisplay:10.37,2013-02-18 19:08:00,
2013-02-18 21:13:00,47.3,38.7,30.02,NE,45,3.5,3.5,72,0.00,BKN,,0.01,0.0,WeatherDisplay:10.37,2013-02-18 19:13:00,
2013-02-18 21:19:00,47.1,38.6,30.02,North,0,1.1,1.1,72,0.00,BKN,,0.01,0.0,WeatherDisplay:10.37,2013-02-18 19:19:00,
2013-02-18 21:24:00,47.1,38.6,30.02,North,0,3.5,3.5,72,0.00,BKN,,0.01,0.0,WeatherDisplay:10.37,2013-02-18 19:24:00,
2013-02-18 21:29:00,47.1,38.6,30.02,ENE,68,1.3,1.3,72,0.00,BKN,,0.01,0.0,WeatherDisplay:10.37,2013-02-18 19:29:00,
2013-02-18 21:34:00,47.1,38.6,30.02,ENE,68,2.3,2.3,72,0.00,BKN,,0.01,0.0,WeatherDisplay:10.37,2013-02-18 19:34:00,
2013-02-18 21:39:00,47.1,38.6,30.01,ENE,68,3.5,3.5,72,0.00,BKN,,0.01,0.0,WeatherDisplay:10.37,2013-02-18 19:39:00,
2013-02-18 21:44:00,47.1,38.6,30.01,East,90,2.3,2.3,72,0.00,BKN,,0.01,0.0,WeatherDisplay:10.37,2013-02-18 19:44:00,
2013-02-18 21:49:00,47.1,38.6,30.01,ENE,68,3.5,3.5,72,0.00,SCT,,0.01,0.0,WeatherDisplay:10.37,2013-02-18 19:49:00,
2013-02-18 21:54:00,47.1,38.6,30.01,NNE,22,0.0,0.0,72,0.00,SCT,,0.01,0.0,WeatherDisplay:10.37,2013-02-18 19:54:00,
2013-02-18 21:59:00,47.1,38.6,30.01,NE,45,0.0,0.0,72,0.00,SCT,,0.01,0.0,WeatherDisplay:10.37,2013-02-18 19:59:00,
2013-02-18 22:04:00,47.1,38.6,30.01,ENE,68,1.1,1.1,72,0.00,SCT,,0.01,0.0,WeatherDisplay:10.37,2013-02-18 20:04:00,
2013-02-18 22:09:00,47.1,38.6,30.01,North,0,1.1,1.1,72,0.00,SCT,,0.01,0.0,WeatherDisplay:10.37,2013-02-18 20:09:00,
2013-02-18 22:14:00,47.1,38.6,30.01,ENE,68,2.3,2.3,72,0.00,SCT,,0.01,0.0,WeatherDisplay:10.37,2013-02-18 20:14:00,
2013-02-18 22:19:00,47.1,38.6,30.01,NE,45,3.5,3.5,72,0.00,SCT,,0.01,0.0,WeatherDisplay:10.37,2013-02-18 20:19:00,
2013-02-18 22:24:00,47.1,38.6,30.01,North,0,2.3,2.3,72,0.00,SCT,,0.01,0.0,WeatherDisplay:10.37,2013-02-18 20:24:00,
2013-02-18 22:29:00,46.9,38.4,30.00,NNE,22,3.5,3.5,72,0.00,SCT,,0.01,0.0,WeatherDisplay:10.37,2013-02-18 20:29:00,
2013-02-18 22:34:00,46.8,38.2,30.00,NE,45,3.5,3.5,72,0.00,FEW,,0.01,0.0,WeatherDisplay:10.37,2013-02-18 20:34:00,
2013-02-18 22:39:00,46.6,38.4,30.00,NNE,22,2.3,2.3,73,0.00,FEW,,0.01,0.0,WeatherDisplay:10.37,2013-02-18 20:39:00,
2013-02-18 22:44:00,46.2,38.0,30.00,NE,45,0.0,0.0,73,0.00,FEW,,0.01,0.0,WeatherDisplay:10.37,2013-02-18 20:44:00,
2013-02-18 22:49:00,46.2,38.0,30.00,ENE,68,2.3,2.3,73,0.00,FEW,,0.01,0.0,WeatherDisplay:10.37,2013-02-18 20:49:00,
2013-02-18 22:54:00,46.0,37.9,30.00,NNE,22,2.3,2.3,73,0.00,FEW,,0.01,0.0,WeatherDisplay:10.37,2013-02-18 20:54:00,
2013-02-18 22:59:00,45.9,38.0,30.00,North,0,3.5,3.5,74,0.00,FEW,,0.01,0.0,WeatherDisplay:10.37,2013-02-18 20:59:00,
2013-02-18 23:04:00,46.0,38.2,30.00,North,0,3.5,3.5,74,0.00,BKN,,0.01,0.0,WeatherDisplay:10.37,2013-02-18 21:04:00,
2013-02-18 23:09:00,46.0,38.2,30.00,North,0,4.6,4.6,74,0.00,BKN,,0.01,0.0,WeatherDisplay:10.37,2013-02-18 21:09:00,
2013-02-18 23:14:00,45.7,37.9,30.00,NNW,338,2.3,2.3,74,0.00,BKN,,0.01,0.0,WeatherDisplay:10.37,2013-02-18 21:14:00,
2013-02-18 23:19:00,45.7,37.9,30.00,ENE,68,2.3,2.3,74,0.00,BKN,,0.01,0.0,WeatherDisplay:10.37,2013-02-18 21:19:00,
2013-02-18 23:24:00,45.7,37.9,30.00,NNE,22,3.5,3.5,74,0.00,BKN,,0.01,0.0,WeatherDisplay:10.37,2013-02-18 21:24:00,
2013-02-18 23:29:00,45.7,37.5,30.00,NW,315,2.3,2.3,73,0.00,BKN,,0.01,0.0,WeatherDisplay:10.37,2013-02-18 21:29:00,
2013-02-18 23:34:00,45.7,37.9,30.00,North,0,1.1,0.0,74,0.00,BKN,,0.01,0.0,WeatherDisplay:10.37,2013-02-18 21:34:00,
2013-02-18 23:39:00,45.7,37.9,30.00,NNW,338,1.1,1.1,74,0.00,BKN,,0.01,0.0,WeatherDisplay:10.37,2013-02-18 21:39:00,
2013-02-18 23:44:00,45.9,38.0,30.00,NNW,338,0.0,0.0,74,0.00,BKN,,0.01,0.0,WeatherDisplay:10.37,2013-02-18 21:44:00,
2013-02-18 23:49:00,45.9,38.0,30.00,NNE,22,0.0,0.0,74,0.00,BKN,,0.01,0.0,WeatherDisplay:10.37,2013-02-18 21:49:00,
2013-02-18 23:54:00,46.0,37.9,30.00,NNE,22,1.1,0.0,73,0.00,BKN,,0.01,0.0,WeatherDisplay:10.37,2013-02-18 21:54:00,
2013-02-18 23:59:00,46.0,37.9,30.00,NNW,338,0.0,0.0,73,0.00,BKN,,0.01,0.0,WeatherDisplay:10.37,2013-02-18 21:59:00,